Black, Texas
Current Conditions -  °F | °C
As of 3:55 AM on Friday 19 Dec 2014 (Local Time) from KCVN Reporting Station
Overcast Overcast  
Wind Chill: 32°   Ceiling: 400
Heat Index: 36°   Visibility: 7mi
Dew Point: 32°   Wind: 5mph
Humidity: 87%   Direction: 120°ESE
Pressure: 30.09"   Gusts: NA
Location:  34.6538°N, 102.747°W
Report Text: KCVN 190955Z 12004KT 7SM OVC004 02/00 A3009 RMK AO1
Loading
Personal Weather Stations






























Interactive Weather Map New forecast layout! Learn more

10-Day Weather Forecast

Advertisements
Track Severe Weather on mobile